createdAt,value
2018-04-17T00:00:19.477Z,71.62
2018-04-17T00:02:45.444Z,70.48
2018-04-17T00:05:11.408Z,70.57
2018-04-17T00:07:37.365Z,71.22
2018-04-17T00:10:03.349Z,72.05
2018-04-17T00:12:29.320Z,71.63
2018-04-17T00:14:55.256Z,71.12
2018-04-17T00:17:22.190Z,71.46
2018-04-17T00:19:48.153Z,71.25
2018-04-17T00:22:14.102Z,72.04
2018-04-17T00:24:40.130Z,71.87
2018-04-17T00:27:06.066Z,72.01
2018-04-17T00:29:32.025Z,72.12
2018-04-17T00:31:58.012Z,72.17
2018-04-17T00:34:23.960Z,71.91
2018-04-17T00:36:49.944Z,71.88
2018-04-17T00:39:15.897Z,72.43
2018-04-17T00:41:41.837Z,71.39
2018-04-17T00:44:07.795Z,72.08
2018-04-17T00:46:33.778Z,71.80
2018-04-17T00:48:59.757Z,71.58
2018-04-17T00:51:25.705Z,71.14
2018-04-17T00:53:51.669Z,71.28
2018-04-17T00:56:17.627Z,71.27
2018-04-17T00:58:43.589Z,71.03
2018-04-17T01:01:09.573Z,71.55
2018-04-17T01:03:35.526Z,71.92
2018-04-17T01:06:01.488Z,72.41
2018-04-17T01:08:27.477Z,71.69
2018-04-17T01:10:53.418Z,71.88
2018-04-17T01:13:19.352Z,71.71
2018-04-17T01:15:45.289Z,71.70
2018-04-17T01:18:11.243Z,71.89
2018-04-17T01:20:37.190Z,72.00
2018-04-17T01:23:03.147Z,72.33
2018-04-17T01:25:29.085Z,72.08
2018-04-17T01:27:55.061Z,72.86
2018-04-17T01:30:20.986Z,73.00
2018-04-17T01:32:46.928Z,72.60
2018-04-17T01:35:12.870Z,72.89
2018-04-17T01:37:38.842Z,72.96
2018-04-17T01:40:04.783Z,72.38
2018-04-17T01:42:30.740Z,72.62
2018-04-17T01:44:56.730Z,72.34
2018-04-17T01:47:22.657Z,72.44
2018-04-17T01:49:48.637Z,72.63
2018-04-17T01:52:14.604Z,72.25
2018-04-17T01:54:40.580Z,72.16
2018-04-17T01:57:06.553Z,71.79
2018-04-17T01:59:32.549Z,72.20
2018-04-17T02:01:58.518Z,71.91
2018-04-17T02:04:24.454Z,72.24
2018-04-17T02:06:50.460Z,73.06
2018-04-17T02:09:16.420Z,72.66
2018-04-17T02:11:42.397Z,72.89
2018-04-17T02:14:08.347Z,73.23
2018-04-17T02:16:34.324Z,72.58
2018-04-17T02:19:00.288Z,73.02
2018-04-17T02:21:26.248Z,73.58
2018-04-17T02:23:52.205Z,73.35
2018-04-17T02:26:18.213Z,72.90
2018-04-17T02:28:44.195Z,73.14
2018-04-17T02:31:10.131Z,73.14
2018-04-17T02:33:36.078Z,73.01
2018-04-17T02:36:02.063Z,71.67
2018-04-17T02:38:28.105Z,72.93
2018-04-17T02:40:54.546Z,71.87
2018-04-17T02:43:20.512Z,72.51
2018-04-17T02:45:46.466Z,71.86
2018-04-17T02:48:12.401Z,72.32
2018-04-17T02:50:38.366Z,72.80
2018-04-17T02:53:04.301Z,72.27
2018-04-17T02:55:30.233Z,71.85
2018-04-17T02:57:56.190Z,72.57
2018-04-17T03:00:22.155Z,72.29
2018-04-17T03:02:48.150Z,72.34
2018-04-17T03:07:46.533Z,72.66
2018-04-17T03:10:12.496Z,73.50
2018-04-17T03:12:38.520Z,72.86
2018-04-17T03:15:04.500Z,72.58
2018-04-17T03:17:30.459Z,73.00
2018-04-17T03:19:56.424Z,73.13
2018-04-17T03:22:22.356Z,72.78
2018-04-17T03:24:48.317Z,72.86
2018-04-17T03:27:14.312Z,72.70
2018-04-17T03:29:40.278Z,73.31
2018-04-17T03:32:06.246Z,73.34
2018-04-17T03:34:32.217Z,73.37
2018-04-17T03:36:58.196Z,73.80
2018-04-17T03:39:24.258Z,73.37
2018-04-17T03:41:50.197Z,73.28
2018-04-17T03:46:48.529Z,73.44
2018-04-17T03:49:17.357Z,73.81
2018-04-17T03:51:43.356Z,74.06
2018-04-17T03:56:41.522Z,72.78
2018-04-17T03:59:09.828Z,72.71
2018-04-17T04:01:35.800Z,72.78
2018-04-17T04:04:01.782Z,73.33
2018-04-17T04:06:27.810Z,73.05
2018-04-17T04:08:53.789Z,72.63
2018-04-17T04:11:19.733Z,73.09
2018-04-17T04:13:45.677Z,72.56
2018-04-17T04:16:11.663Z,72.32
2018-04-17T04:18:37.639Z,73.26
2018-04-17T04:21:03.597Z,72.59
2018-04-17T04:23:29.560Z,72.41
2018-04-17T04:25:55.502Z,72.42
2018-04-17T04:28:21.458Z,72.95
2018-04-17T04:30:47.425Z,72.64
2018-04-17T04:33:13.413Z,72.71
2018-04-17T04:35:39.370Z,72.68
2018-04-17T04:38:05.764Z,72.47
2018-04-17T04:40:31.852Z,72.15
2018-04-17T04:42:57.922Z,72.44
2018-04-17T04:45:23.953Z,72.11
2018-04-17T04:47:49.947Z,72.21
2018-04-17T04:50:15.885Z,72.35
2018-04-17T04:52:41.819Z,72.14
2018-04-17T04:55:07.781Z,72.34
2018-04-17T04:57:33.754Z,72.26
2018-04-17T04:59:59.722Z,72.09
2018-04-17T05:02:29.965Z,72.68
2018-04-17T05:04:56.015Z,72.36
2018-04-17T05:07:22.037Z,72.14
2018-04-17T05:09:48.016Z,71.65
2018-04-17T05:12:13.984Z,71.77
2018-04-17T05:14:39.977Z,71.99
2018-04-17T05:17:05.932Z,71.83
2018-04-17T05:19:31.929Z,72.63
2018-04-17T05:21:57.936Z,72.35
2018-04-17T05:24:23.903Z,72.19
2018-04-17T05:26:49.851Z,72.46
2018-04-17T05:29:15.819Z,72.36
2018-04-17T05:31:41.795Z,72.18
2018-04-17T05:34:07.745Z,72.61
2018-04-17T05:36:33.686Z,72.43
2018-04-17T05:38:59.623Z,71.86
2018-04-17T05:41:25.580Z,72.69
2018-04-17T05:43:51.542Z,72.91
2018-04-17T05:46:17.495Z,72.53
2018-04-17T05:48:43.481Z,72.59
2018-04-17T05:51:09.433Z,73.13
2018-04-17T05:53:35.413Z,72.48
2018-04-17T05:56:01.421Z,72.08
2018-04-17T05:58:27.347Z,71.73
2018-04-17T06:00:53.301Z,70.91
2018-04-17T06:03:19.277Z,71.12
2018-04-17T06:05:45.248Z,70.93
2018-04-17T06:08:11.202Z,71.74
2018-04-17T06:10:37.527Z,71.29
2018-04-17T06:13:03.482Z,71.47
2018-04-17T06:15:29.435Z,71.01
2018-04-17T06:17:55.415Z,70.59
2018-04-17T06:20:21.373Z,71.37
2018-04-17T06:22:47.354Z,71.47
2018-04-17T06:25:13.314Z,71.21
2018-04-17T06:27:39.286Z,71.53
2018-04-17T06:30:05.311Z,70.49
2018-04-17T06:32:31.277Z,70.93
2018-04-17T06:34:57.228Z,70.27
2018-04-17T06:37:23.248Z,70.49
2018-04-17T06:39:49.225Z,70.61
2018-04-17T06:42:15.185Z,70.41
2018-04-17T06:44:41.168Z,70.02
2018-04-17T06:47:07.167Z,69.56
2018-04-17T06:49:33.136Z,69.98
2018-04-17T06:51:59.169Z,69.87
2018-04-17T06:54:25.363Z,69.86
2018-04-17T06:56:51.329Z,69.94
2018-04-17T06:59:17.303Z,69.65
2018-04-17T07:01:43.271Z,69.73
2018-04-17T07:04:09.244Z,69.73
2018-04-17T07:06:35.206Z,69.44
2018-04-17T07:09:01.182Z,69.53
2018-04-17T07:11:27.145Z,69.97
2018-04-17T07:13:53.133Z,69.81
2018-04-17T07:16:19.089Z,69.47
2018-04-17T07:18:45.074Z,69.55
2018-04-17T07:21:11.040Z,69.49
2018-04-17T07:23:37.027Z,69.36
2018-04-17T07:26:02.983Z,69.39
2018-04-17T07:28:29.373Z,69.51
2018-04-17T07:30:55.337Z,69.62
2018-04-17T07:33:21.318Z,69.22
2018-04-17T07:35:47.343Z,69.08
2018-04-17T07:38:13.300Z,68.33
2018-04-17T07:40:39.268Z,68.77
2018-04-17T07:43:05.251Z,68.44
2018-04-17T07:45:31.209Z,68.96
2018-04-17T07:47:57.193Z,68.58
2018-04-17T07:50:23.169Z,68.58
2018-04-17T07:52:49.140Z,68.30
2018-04-17T07:55:15.110Z,68.43
2018-04-17T07:57:41.132Z,68.49
2018-04-17T08:00:07.061Z,68.37
2018-04-17T08:02:33.023Z,68.54
2018-04-17T08:04:59.031Z,68.38
2018-04-17T08:07:25.007Z,67.97
2018-04-17T08:09:50.985Z,67.82
2018-04-17T08:12:16.969Z,68.83
2018-04-17T08:14:42.979Z,68.68
2018-04-17T08:17:08.935Z,68.21
2018-04-17T08:19:36.621Z,68.19
2018-04-17T08:22:02.608Z,68.51
2018-04-17T08:24:28.581Z,69.00
2018-04-17T08:26:54.635Z,68.83
2018-04-17T08:29:20.583Z,68.59
2018-04-17T08:31:46.550Z,68.13
2018-04-17T08:34:12.532Z,68.03
2018-04-17T08:36:38.499Z,68.30
2018-04-17T08:39:04.474Z,68.01
2018-04-17T08:41:30.409Z,67.85
2018-04-17T08:43:56.385Z,68.16
2018-04-17T08:46:22.369Z,68.02
2018-04-17T08:48:48.334Z,67.71
2018-04-17T08:51:14.271Z,68.02
2018-04-17T08:53:40.458Z,67.61
2018-04-17T08:56:06.433Z,67.97
2018-04-17T08:58:32.469Z,67.73
2018-04-17T09:00:58.432Z,67.67
2018-04-17T09:03:24.396Z,67.78
2018-04-17T09:05:50.392Z,68.30
2018-04-17T09:08:16.329Z,67.82
2018-04-17T09:10:42.315Z,67.99
2018-04-17T09:13:08.355Z,67.90
2018-04-17T09:15:34.306Z,67.83
2018-04-17T09:18:00.258Z,68.18
2018-04-17T09:20:26.233Z,68.10
2018-04-17T09:22:52.207Z,68.40
2018-04-17T09:25:18.173Z,68.87
2018-04-17T09:27:44.121Z,68.51
2018-04-17T09:30:10.053Z,68.78
2018-04-17T09:32:36.012Z,68.69
2018-04-17T09:35:01.985Z,67.50
2018-04-17T09:37:27.938Z,68.10
2018-04-17T09:39:53.917Z,67.80
2018-04-17T09:42:19.885Z,67.46
2018-04-17T09:44:45.860Z,67.34
2018-04-17T09:47:11.944Z,67.18
2018-04-17T09:49:38.268Z,67.30
2018-04-17T09:52:04.267Z,66.70
2018-04-17T09:54:30.245Z,66.65
2018-04-17T09:56:56.191Z,66.30
2018-04-17T09:59:22.178Z,66.00
2018-04-17T10:01:48.112Z,66.81
2018-04-17T10:04:14.076Z,67.03
2018-04-17T10:06:40.030Z,67.28
2018-04-17T10:09:06.015Z,66.33
2018-04-17T10:11:31.964Z,65.85
2018-04-17T10:13:57.916Z,65.53
2018-04-17T10:16:23.860Z,65.38
2018-04-17T10:18:49.797Z,65.55
2018-04-17T10:21:15.755Z,65.35
2018-04-17T10:23:41.747Z,65.62
2018-04-17T10:26:07.686Z,65.79
2018-04-17T10:28:33.686Z,64.95
2018-04-17T10:30:59.748Z,64.73
2018-04-17T10:33:25.708Z,65.03
2018-04-17T10:35:51.698Z,64.95
2018-04-17T10:38:17.653Z,65.69
2018-04-17T10:40:43.649Z,66.22
2018-04-17T10:43:09.624Z,65.50
2018-04-17T10:48:08.096Z,65.35
2018-04-17T10:50:34.049Z,65.18
2018-04-17T10:52:59.981Z,64.95
2018-04-17T10:55:25.912Z,65.31
2018-04-17T10:57:51.888Z,64.42
2018-04-17T11:00:17.838Z,64.92
2018-04-17T11:02:43.819Z,63.99
2018-04-17T11:05:09.772Z,63.42
2018-04-17T11:07:35.748Z,63.59
2018-04-17T11:10:01.716Z,63.53
2018-04-17T11:12:27.673Z,63.42
2018-04-17T11:14:53.645Z,64.08
2018-04-17T11:17:19.606Z,63.50
2018-04-17T11:19:45.557Z,63.98
2018-04-17T11:22:11.546Z,63.95
2018-04-17T11:24:37.520Z,64.08
2018-04-17T11:27:03.477Z,63.40
2018-04-17T11:29:29.460Z,64.36
2018-04-17T11:31:55.432Z,64.17
2018-04-17T11:34:21.402Z,64.05
2018-04-17T11:36:47.365Z,63.99
2018-04-17T11:39:13.350Z,64.03
2018-04-17T11:41:39.308Z,64.42
2018-04-17T11:44:05.297Z,64.12
2018-04-17T11:46:31.267Z,64.12
2018-04-17T11:48:57.242Z,64.57
2018-04-17T11:51:23.186Z,64.91
2018-04-17T11:53:49.212Z,64.43
2018-04-17T11:56:15.210Z,64.33
2018-04-17T11:58:41.209Z,64.48
2018-04-17T12:01:07.207Z,64.15
2018-04-17T12:03:33.186Z,65.24
2018-04-17T12:05:59.130Z,64.65
2018-04-17T12:08:25.096Z,64.87
2018-04-17T12:10:51.051Z,64.14
2018-04-17T12:13:17.038Z,64.26
2018-04-17T12:15:42.977Z,64.30
2018-04-17T12:18:08.942Z,64.56
2018-04-17T12:20:34.894Z,63.69
2018-04-17T12:23:00.867Z,64.53
2018-04-17T12:25:26.815Z,64.79
2018-04-17T12:27:52.754Z,66.02
2018-04-17T12:30:18.697Z,64.46
2018-04-17T12:32:44.799Z,64.36
2018-04-17T12:35:10.832Z,63.38
2018-04-17T12:37:36.870Z,63.35
2018-04-17T12:40:02.881Z,63.83
2018-04-17T12:42:28.889Z,64.14
2018-04-17T12:44:54.928Z,64.26
2018-04-17T12:47:20.997Z,63.77
2018-04-17T12:49:46.950Z,64.01
2018-04-17T12:52:12.933Z,63.50
2018-04-17T12:54:38.867Z,63.44
2018-04-17T12:57:04.848Z,63.41
2018-04-17T12:59:32.830Z,63.52
2018-04-17T13:01:58.854Z,62.98
2018-04-17T13:04:24.868Z,63.34
2018-04-17T13:06:50.873Z,63.59
2018-04-17T13:09:16.959Z,64.29
2018-04-17T13:11:42.935Z,63.77
2018-04-17T13:14:08.942Z,63.92
2018-04-17T13:16:34.977Z,63.69
2018-04-17T13:19:02.045Z,63.67
2018-04-17T13:21:28.063Z,63.78
2018-04-17T13:23:54.042Z,63.70
2018-04-17T13:26:19.973Z,63.54
2018-04-17T13:28:46.493Z,64.24
2018-04-17T13:31:12.426Z,63.72
2018-04-17T13:33:38.396Z,63.49
2018-04-17T13:36:04.366Z,64.30
2018-04-17T13:38:30.405Z,63.20
2018-04-17T13:40:56.462Z,63.01
2018-04-17T13:43:23.724Z,63.26
2018-04-17T13:45:49.777Z,63.43
2018-04-17T13:48:15.963Z,63.06
2018-04-17T13:50:43.270Z,63.52
2018-04-17T13:53:09.308Z,62.95
2018-04-17T13:55:35.351Z,63.20
2018-04-17T13:58:01.482Z,62.65
2018-04-17T14:00:28.791Z,62.99
2018-04-17T14:02:54.872Z,62.90
2018-04-17T14:05:20.938Z,62.80
2018-04-17T14:07:46.959Z,62.73
2018-04-17T14:10:13.042Z,62.97
2018-04-17T14:12:39.118Z,62.81
2018-04-17T14:15:05.152Z,62.40
2018-04-17T14:17:31.203Z,62.21
2018-04-17T14:19:57.298Z,61.68
2018-04-17T14:22:23.317Z,61.92
2018-04-17T14:24:49.584Z,61.72
2018-04-17T14:27:15.663Z,61.55
2018-04-17T14:29:41.804Z,61.07
2018-04-17T14:32:07.873Z,61.30
2018-04-17T14:34:33.940Z,62.13
2018-04-17T14:37:00.624Z,61.48
2018-04-17T14:39:26.639Z,61.19
2018-04-17T14:41:52.737Z,61.04
2018-04-17T14:44:18.729Z,59.59
2018-04-17T14:46:44.765Z,60.62
2018-04-17T14:49:10.911Z,60.64
2018-04-17T14:51:37.274Z,60.59
2018-04-17T14:54:03.346Z,59.83
2018-04-17T14:56:29.425Z,59.98
2018-04-17T14:58:55.420Z,60.04
2018-04-17T15:01:22.030Z,58.47
2018-04-17T15:03:49.065Z,58.64
2018-04-17T15:06:15.137Z,59.40
2018-04-17T15:08:41.180Z,59.54
2018-04-17T15:11:07.197Z,59.87
2018-04-17T15:13:33.243Z,59.59
2018-04-17T15:15:59.334Z,59.51
2018-04-17T15:18:25.488Z,59.12
2018-04-17T15:20:51.541Z,58.29
2018-04-17T15:23:17.554Z,59.21
2018-04-17T15:25:43.604Z,59.22
2018-04-17T15:28:09.688Z,58.52
2018-04-17T15:30:35.664Z,57.54
2018-04-17T15:33:01.715Z,58.29
2018-04-17T15:35:27.732Z,58.16
2018-04-17T15:37:53.797Z,57.46
2018-04-17T15:40:20.551Z,57.75
2018-04-17T15:42:46.702Z,54.17
2018-04-17T15:45:13.612Z,58.17
2018-04-17T15:47:40.583Z,57.47
2018-04-17T15:50:10.483Z,57.04
2018-04-17T15:52:36.496Z,57.10
2018-04-17T15:55:02.511Z,56.68
2018-04-17T15:57:28.560Z,56.61
2018-04-17T15:59:55.379Z,56.33
2018-04-17T16:02:21.392Z,56.05
2018-04-17T16:04:47.465Z,55.34
2018-04-17T16:07:13.516Z,56.06
2018-04-17T16:09:40.505Z,55.98
2018-04-17T16:12:06.544Z,55.91
2018-04-17T16:14:33.021Z,55.01
2018-04-17T16:16:59.077Z,55.78
2018-04-17T16:19:25.641Z,55.96
2018-04-17T16:21:52.177Z,55.55
2018-04-17T16:24:19.307Z,54.92
2018-04-17T16:26:45.346Z,55.39
2018-04-17T16:29:11.458Z,54.65
2018-04-17T16:31:37.539Z,55.81
2018-04-17T16:34:03.546Z,55.11
2018-04-17T16:36:30.569Z,53.91
2018-04-17T16:38:56.670Z,53.66
2018-04-17T16:41:22.864Z,54.51
2018-04-17T16:43:48.996Z,54.80
2018-04-17T16:46:15.530Z,53.84
2018-04-17T16:48:41.631Z,55.09
2018-04-17T16:51:07.883Z,54.15
2018-04-17T16:53:33.896Z,53.31
2018-04-17T16:55:59.972Z,53.43
2018-04-17T16:58:26.020Z,53.14
2018-04-17T17:00:52.073Z,53.93
2018-04-17T17:03:18.183Z,54.58
2018-04-17T17:05:45.124Z,54.44
2018-04-17T17:08:11.189Z,54.84
2018-04-17T17:10:37.224Z,55.09
2018-04-17T17:13:03.253Z,54.68
2018-04-17T17:15:29.446Z,54.41
2018-04-17T17:17:55.406Z,54.78
2018-04-17T17:20:21.462Z,55.55
2018-04-17T17:22:47.375Z,55.96
2018-04-17T17:25:13.376Z,55.90
2018-04-17T17:27:39.305Z,56.26
2018-04-17T17:30:05.276Z,56.45
2018-04-17T17:32:31.327Z,56.57
2018-04-17T17:34:57.267Z,56.36
2018-04-17T17:37:23.234Z,56.58
2018-04-17T17:39:49.207Z,56.64
2018-04-17T17:42:15.161Z,56.42
2018-04-17T17:44:41.320Z,56.37
2018-04-17T17:47:07.340Z,56.04
2018-04-17T17:49:33.317Z,56.72
2018-04-17T17:51:59.370Z,56.93
2018-04-17T17:54:25.344Z,57.36
2018-04-17T17:56:51.352Z,57.94
2018-04-17T17:59:17.300Z,57.88
2018-04-17T18:01:43.256Z,58.65
2018-04-17T18:04:09.241Z,58.81
2018-04-17T18:06:35.183Z,58.89
2018-04-17T18:09:01.209Z,59.11
2018-04-17T18:11:29.177Z,59.54
2018-04-17T18:13:55.146Z,60.03
2018-04-17T18:16:21.161Z,60.30
2018-04-17T18:18:47.187Z,59.77
2018-04-17T18:21:13.575Z,59.98
2018-04-17T18:23:39.581Z,61.04
2018-04-17T18:26:06.642Z,60.76
2018-04-17T18:28:32.827Z,60.77
2018-04-17T18:30:59.077Z,61.27
2018-04-17T18:33:25.084Z,61.09
2018-04-17T18:35:53.484Z,61.92
2018-04-17T18:38:20.513Z,61.79
2018-04-17T18:40:46.504Z,61.71
2018-04-17T18:43:13.489Z,61.06
2018-04-17T18:45:39.759Z,61.47
2018-04-17T18:48:08.835Z,61.98
2018-04-17T18:50:37.061Z,61.72
2018-04-17T18:53:05.391Z,60.64
2018-04-17T18:55:34.725Z,62.17
2018-04-17T18:58:01.615Z,61.97
2018-04-17T19:00:27.760Z,61.86
2018-04-17T19:02:53.892Z,61.93
2018-04-17T19:05:20.692Z,61.85
2018-04-17T19:07:47.047Z,62.37
2018-04-17T19:10:13.806Z,62.33
2018-04-17T19:12:39.974Z,62.15
2018-04-17T19:15:06.017Z,62.09
2018-04-17T19:17:32.180Z,61.73
2018-04-17T19:19:58.473Z,61.34
2018-04-17T19:22:24.608Z,61.73
2018-04-17T19:24:50.710Z,62.28
2018-04-17T19:27:18.944Z,62.73
2018-04-17T19:29:47.184Z,62.97
2018-04-17T19:32:13.230Z,62.41
2018-04-17T19:34:39.392Z,62.17
2018-04-17T19:37:05.419Z,63.43
2018-04-17T19:39:31.438Z,62.88
2018-04-17T19:41:57.417Z,62.59
2018-04-17T19:44:23.409Z,62.51
2018-04-17T19:46:49.369Z,62.93
2018-04-17T19:49:19.050Z,63.23
2018-04-17T19:51:45.036Z,63.86
2018-04-17T19:54:12.050Z,63.03
2018-04-17T19:56:38.210Z,63.20
2018-04-17T19:59:04.337Z,63.05
2018-04-17T20:01:30.455Z,62.83
2018-04-17T20:03:56.579Z,63.02
2018-04-17T20:06:23.376Z,62.62
2018-04-17T20:08:49.476Z,63.96
2018-04-17T20:11:15.678Z,63.97
2018-04-17T20:13:41.800Z,63.75
2018-04-17T20:16:07.932Z,63.13
2018-04-17T20:18:33.964Z,63.00
2018-04-17T20:21:00.757Z,63.04
2018-04-17T20:23:27.129Z,63.01
2018-04-17T20:25:53.268Z,63.35
2018-04-17T20:28:20.668Z,63.86
2018-04-17T20:30:46.711Z,64.10
2018-04-17T20:33:12.681Z,64.21
2018-04-17T20:35:39.735Z,64.32
2018-04-17T20:38:06.853Z,64.11
2018-04-17T20:40:33.637Z,63.60
2018-04-17T20:42:59.742Z,64.21
2018-04-17T20:45:26.824Z,64.62
2018-04-17T20:47:52.892Z,64.34
2018-04-17T20:50:18.928Z,64.67
2018-04-17T20:52:44.899Z,65.37
2018-04-17T20:55:10.890Z,65.34
2018-04-17T20:57:36.911Z,64.83
2018-04-17T21:00:02.881Z,64.63
2018-04-17T21:02:29.106Z,64.82
2018-04-17T21:04:55.324Z,64.88
2018-04-17T21:07:21.365Z,64.33
2018-04-17T21:09:47.349Z,65.42
2018-04-17T21:12:13.400Z,64.67
2018-04-17T21:14:39.407Z,64.40
2018-04-17T21:17:05.496Z,64.15
2018-04-17T21:19:31.506Z,64.34
2018-04-17T21:21:57.581Z,66.02
2018-04-17T21:24:23.615Z,65.98
2018-04-17T21:26:49.673Z,66.21
2018-04-17T21:29:15.665Z,65.95
2018-04-17T21:31:41.856Z,65.87
2018-04-17T21:34:07.928Z,67.09
2018-04-17T21:36:33.981Z,66.40
2018-04-17T21:39:00.047Z,67.28
2018-04-17T21:41:26.172Z,66.61
2018-04-17T21:43:52.225Z,67.21
2018-04-17T21:46:18.288Z,67.15
2018-04-17T21:48:44.398Z,68.14
2018-04-17T21:51:10.440Z,68.07
2018-04-17T21:53:36.485Z,69.16
2018-04-17T21:56:02.531Z,68.11
2018-04-17T21:58:28.532Z,68.60
2018-04-17T22:00:54.558Z,68.33
2018-04-17T22:03:20.632Z,67.87
2018-04-17T22:05:46.685Z,67.42
2018-04-17T22:08:12.731Z,68.18
2018-04-17T22:10:38.730Z,69.06
2018-04-17T22:13:04.717Z,68.92
2018-04-17T22:15:30.715Z,68.12
2018-04-17T22:17:56.770Z,67.77
2018-04-17T22:20:22.849Z,68.86
2018-04-17T22:22:48.933Z,68.16
2018-04-17T22:25:14.971Z,67.55
2018-04-17T22:27:41.001Z,68.94
2018-04-17T22:30:07.157Z,68.46
2018-04-17T22:32:33.374Z,68.80
2018-04-17T22:34:59.480Z,69.11
2018-04-17T22:37:25.531Z,69.08
2018-04-17T22:39:52.315Z,69.08
2018-04-17T22:42:18.536Z,68.59
2018-04-17T22:44:44.573Z,68.39
2018-04-17T22:47:10.616Z,68.66
2018-04-17T22:49:37.771Z,68.37
2018-04-17T22:52:03.824Z,66.70
2018-04-17T22:54:29.857Z,67.04
2018-04-17T22:56:55.913Z,67.52
2018-04-17T22:59:21.969Z,68.35
2018-04-17T23:01:47.993Z,67.33
2018-04-17T23:04:14.005Z,66.94
2018-04-17T23:06:40.074Z,66.58
2018-04-17T23:09:06.071Z,66.70
2018-04-17T23:11:32.116Z,66.93
2018-04-17T23:13:58.123Z,67.42
2018-04-17T23:16:24.137Z,67.10
2018-04-17T23:18:50.182Z,68.06
2018-04-17T23:21:16.252Z,68.15
2018-04-17T23:23:42.273Z,68.52
2018-04-17T23:26:08.367Z,69.19
2018-04-17T23:28:34.403Z,68.78
2018-04-17T23:31:00.421Z,68.76
2018-04-17T23:33:26.415Z,68.99
2018-04-17T23:35:52.545Z,68.78
2018-04-17T23:38:18.554Z,68.62
2018-04-17T23:40:44.590Z,67.77
2018-04-17T23:43:10.585Z,68.10
2018-04-17T23:45:36.616Z,68.56
2018-04-17T23:48:02.614Z,69.34
2018-04-17T23:50:28.681Z,69.53
2018-04-17T23:52:54.730Z,68.02
2018-04-17T23:55:20.733Z,67.11
2018-04-17T23:57:46.758Z,67.65
